Time;durP1;ratioP1;P1;durP2;ratioP2;P2;SDS_P1;SDS_P2;PMS_P1;PMS_P2;Temp;Humidity;BMP_temperature;BMP_pressure;BME280_temperature;BME280_humidity;BME280_pressure;Samples;Min_cycle;Max_cycle;Signal;HPM_P1;HPM_P2
2023/04/02 06:38:01;;;;;;;0.53;0.53;;;;;;;;;;6130300;22;1228102;-68
2023/04/02 06:40:33;;;;;;;1.03;0.60;;;;;;;;;;6179988;23;20156;-69
2023/04/02 06:43:01;;;;;;;0.37;0.37;;;;;;;;;;6178354;23;20391;-69
2023/04/02 06:45:31;;;;;;;0.47;0.47;;;;;;;;;;6176174;23;20402;-69
2023/04/02 06:47:59;;;;;;;0.73;0.40;;;;;;;;;;6179217;23;20447;-70
2023/04/02 06:50:30;;;;;;;0.40;0.40;;;;;;;;;;6176395;23;20950;-69
2023/04/02 06:52:57;;;;;;;0.70;0.70;;;;;;;;;;6178736;23;20459;-68
2023/04/02 06:55:26;;;;;;;0.40;0.40;;;;;;;;;;6178975;23;20406;-68
2023/04/02 06:57:52;;;;;;;0.70;0.40;;;;;;;;;;6178906;23;20437;-69
2023/04/02 07:00:28;;;;;;;0.50;0.50;;;;;;;;;;6178742;23;20380;-71
2023/04/02 07:02:55;;;;;;;0.50;0.50;;;;;;;;;;6179225;23;20380;-70
2023/04/02 07:05:21;;;;;;;0.43;0.43;;;;;;;;;;6179020;23;20439;-70
2023/04/02 10:08:25;;;;;;;0.90;0.90;;;;;;;;;;6197686;23;20514;-60
2023/04/02 10:10:52;;;;;;;32.23;17.70;;;;;;;;;;6241266;23;20355;-71
2023/04/02 10:13:30;;;;;;;8.50;7.97;;;;;;;;;;6241342;23;20454;-68
2023/04/02 10:16:15;;;;;;;5.87;5.50;;;;;;;;;;6240496;23;20339;-69
2023/04/02 10:18:43;;;;;;;9.93;9.13;;;;;;;;;;6241287;23;20327;-69
2023/04/02 10:21:11;;;;;;;4.30;4.13;;;;;;;;;;6240808;23;20355;-70
2023/04/02 10:23:38;;;;;;;0.47;0.47;;;;;;;;;;6241264;23;20351;-70
2023/04/02 10:26:23;;;;;;;1.03;1.03;;;;;;;;;;6240044;23;20349;-70
2023/04/02 10:28:55;;;;;;;4.87;4.67;;;;;;;;;;6240612;23;20363;-69
2023/04/02 10:31:24;;;;;;;4.23;4.13;;;;;;;;;;6240284;23;20351;-69
2023/04/02 10:33:51;;;;;;;5.50;5.40;;;;;;;;;;6241164;23;20379;-70
2023/04/02 10:36:36;;;;;;;2.57;2.57;;;;;;;;;;6240522;23;20343;-70
2023/04/02 10:39:07;;;;;;;1.33;1.23;;;;;;;;;;6241429;23;20362;-70
2023/04/02 10:41:53;;;;;;;3.30;3.10;;;;;;;;;;6240610;23;20352;-69
2023/04/02 10:44:36;;;;;;;3.30;3.20;;;;;;;;;;6241171;23;20343;-70
2023/04/02 10:47:02;;;;;;;1.03;1.03;;;;;;;;;;6240251;23;20343;-69
2023/04/02 10:49:40;;;;;;;0.57;0.57;;;;;;;;;;6241240;23;20371;-70
2023/04/02 10:52:36;;;;;;;1.20;1.20;;;;;;;;;;6241132;23;20390;-70
2023/04/02 10:55:05;;;;;;;45.57;33.70;;;;;;;;;;6214137;23;20363;-71
2023/04/02 10:57:41;;;;;;;3.43;3.43;;;;;;;;;;6239997;23;20343;-69
2023/04/02 11:00:10;;;;;;;10.23;9.33;;;;;;;;;;6240614;23;20331;-70
2023/04/02 11:02:41;;;;;;;1.93;1.93;;;;;;;;;;6240185;23;20346;-70
2023/04/02 11:05:27;;;;;;;3.80;3.60;;;;;;;;;;6240368;23;20351;-69
2023/04/02 11:08:03;;;;;;;11.13;10.03;;;;;;;;;;6213809;23;20429;-70
2023/04/02 11:10:31;;;;;;;0.83;0.83;;;;;;;;;;6240861;23;20399;-69
2023/04/02 11:13:04;;;;;;;0.90;0.90;;;;;;;;;;6240989;23;20397;-70
2023/04/02 11:15:31;;;;;;;0.30;0.30;;;;;;;;;;6240672;23;20334;-70
2023/04/02 11:17:57;;;;;;;0.50;0.40;;;;;;;;;;6242796;23;20365;-70
2023/04/02 11:20:42;;;;;;;0.50;0.40;;;;;;;;;;6242639;23;20323;-70
2023/04/02 11:23:10;;;;;;;0.97;0.97;;;;;;;;;;6243023;23;20351;-70
2023/04/02 11:25:36;;;;;;;3.27;3.17;;;;;;;;;;6241384;23;20390;-70
2023/04/02 11:28:12;;;;;;;2.03;1.93;;;;;;;;;;6242518;23;20374;-71
2023/04/02 11:30:39;;;;;;;1.60;0.60;;;;;;;;;;6208666;23;20370;-71
2023/04/02 11:33:25;;;;;;;0.60;0.60;;;;;;;;;;6210830;23;20541;-71
2023/04/02 11:35:51;;;;;;;1.23;1.23;;;;;;;;;;6210374;23;20425;-71
2023/04/02 11:38:20;;;;;;;0.40;0.40;;;;;;;;;;6211214;23;20895;-70
2023/04/02 11:40:48;;;;;;;2.93;1.30;;;;;;;;;;6209613;23;20939;-70
2023/04/02 11:43:35;;;;;;;1.30;1.30;;;;;;;;;;6211272;23;20394;-71
2023/04/02 11:46:05;;;;;;;2.30;2.10;;;;;;;;;;6190161;23;20481;-70
2023/04/02 11:48:34;;;;;;;0.60;0.60;;;;;;;;;;6209843;23;20379;-70
2023/04/02 11:51:03;;;;;;;0.40;0.40;;;;;;;;;;6210101;23;20371;-70
